09:19
Airports
Links
Donate
Help keep this website running!
PayPal
Bitcoin
METAR
KBFI 200853Z 15006KT 10SM FEW048 M02/M07 A3023 RMK AO2 SLP236 T10221072 56004
Current Weather Conditions at KBFI
VFR 08:53:00 20-02-18
Automated station
Altimeter:30.23 hg
Temp:-2.2°c 28°f
Dew point:-7.2°c 19°f
Wind:6 knots, 6.9 mph, 3 m/s, from 150°
Visibility:10.0 statute miles
4800(FEW) A few
Past METAR reports
VFR 07:53:00 20-02-18
Automated station
Altimeter:30.23 hg
Temp:-1.7°c 30°f
Dew point:-7.2°c 19°f
Wind:4 knots, 4.6 mph, 2 m/s, from 140°
Visibility:10.0 statute miles
4700(SCT) Scattered
KBFI 200753Z 14004KT 10SM SCT047 M02/M07 A3023 RMK AO2 SLP236 T10171072 400281022
VFR 06:53:00 20-02-18
Automated station
Altimeter:30.23 hg
Temp:-1.1°c 30°f
Dew point:-8.3°c 18°f
Wind:4 knots, 4.6 mph, 2 m/s, from 130°
Visibility:10.0 statute miles
(CLR) Clear
KBFI 200653Z 13004KT 10SM CLR M01/M08 A3023 RMK AO2 SLP238 T10111083
VFR 05:53:00 20-02-18
Automated station
Altimeter:30.24 hg
Temp:-1.7°c 30°f
Dew point:-7.8°c 19°f
Wind:6 knots, 6.9 mph, 3 m/s, from 140°
Visibility:10.0 statute miles
6000(SCT) Scattered
KBFI 200553Z 14006KT 10SM SCT060 M02/M08 A3024 RMK AO2 SLP239 T10171078 10022 21022 51009
VFR 04:53:00 20-02-18
Automated station
Altimeter:30.24 hg
Temp:-1.1°c 30°f
Dew point:-8.9°c 18°f
Wind:0 knots, 0 mph, 0 m/s,
Variable direction
Visibility:10.0 statute miles
(CLR) Clear
KBFI 200453Z 00000KT 10SM CLR M01/M09 A3024 RMK AO2 SLP238 T10111089
VFR 03:53:00 20-02-18
Automated station
Altimeter:30.23 hg
Temp:0.0°c 32°f
Dew point:-10.0°c 14°f
Wind:0 knots, 0 mph, 0 m/s,
Variable direction
Visibility:10.0 statute miles
(CLR) Clear
KBFI 200353Z 00000KT 10SM CLR 00/M10 A3023 RMK AO2 SLP234 T00001100
TAF
KBFI 200904Z 2009/2106 15006KT P6SM SCT050 BKN120 FM201800 14005KT P6SM SCT050 OVC100 FM202100 13004KT P6SM OVC050 FM210200 02005KT P6SM BKN050 BKN200 FM210500 02005KT P6SM SCT250
Forecast at KBFI
09:00 20-02-18 to 18:00 20-02-18
Wind:6 Knots from 150°
Visibility:6.21 statute miles
5000SCT Scattered
12000BKN Broken
FM 18:00 20-02-18 to 21:00 20-02-18
Wind:5 Knots from 140°
Visibility:6.21 statute miles
5000SCT Scattered
10000OVC Overcast
FM 21:00 20-02-18 to 02:00 21-02-18
Wind:4 Knots from 130°
Visibility:6.21 statute miles
5000OVC Overcast
FM 02:00 21-02-18 to 05:00 21-02-18
Wind:5 Knots from 20°
Visibility:6.21 statute miles
5000BKN Broken
20000BKN Broken
FM 05:00 21-02-18 to 06:00 21-02-18
Wind:5 Knots from 20°
Visibility:6.21 statute miles
25000SCT Scattered